Time;durP1;ratioP1;P1;durP2;ratioP2;P2;SDS_P1;SDS_P2;PMS_P1;PMS_P2;Temp;Humidity;BMP_temperature;BMP_pressure;BME280_temperature;BME280_humidity;BME280_pressure;Samples;Min_cycle;Max_cycle;Signal;HPM_P1;HPM_P2
2022/01/01 00:02:22;;;;;;;28.77;20.77;;;12.60;92.40;;;;;;5017357;28;20078;-74
2022/01/01 00:04:48;;;;;;;33.92;23.73;;;12.50;92.40;;;;;;5006784;28;20042;-74
2022/01/01 00:07:14;;;;;;;31.88;22.42;;;12.50;92.60;;;;;;5014066;28;20044;-74
2022/01/01 00:09:43;;;;;;;36.30;23.40;;;12.40;92.60;;;;;;5019886;28;20034;-77
2022/01/01 00:12:10;;;;;;;33.08;21.38;;;12.40;92.60;;;;;;5015770;28;20037;-73
2022/01/01 00:14:37;;;;;;;30.02;20.75;;;12.40;92.70;;;;;;5030975;28;20461;-74
2022/01/01 00:17:04;;;;;;;31.88;19.58;;;12.30;92.70;;;;;;5010848;28;20489;-75
2022/01/01 00:19:33;;;;;;;28.70;19.42;;;12.30;92.80;;;;;;5023288;28;20080;-74
2022/01/01 00:22:00;;;;;;;25.58;19.30;;;12.30;92.70;;;;;;5006709;28;20065;-74
2022/01/01 00:24:25;;;;;;;27.50;18.67;;;12.30;92.70;;;;;;5024332;28;20033;-74
2022/01/01 00:26:52;;;;;;;24.67;16.02;;;12.40;92.70;;;;;;5030420;28;20554;-73
2022/01/01 00:29:18;;;;;;;26.30;16.45;;;12.40;92.60;;;;;;5015720;28;20113;-74
2022/01/01 00:31:43;;;;;;;27.67;15.80;;;12.40;92.60;;;;;;5011208;28;20129;-74
2022/01/01 00:34:09;;;;;;;23.58;14.70;;;12.50;92.40;;;;;;5023511;28;20117;-74
2022/01/01 00:36:35;;;;;;;24.15;14.20;;;12.50;92.30;;;;;;5022133;28;20491;-73
2022/01/01 00:39:01;;;;;;;19.27;13.50;;;12.50;92.30;;;;;;5026304;28;20404;-74
2022/01/01 00:41:26;;;;;;;20.25;13.13;;;12.50;92.10;;;;;;5013722;28;20473;-73
2022/01/01 00:43:52;;;;;;;22.20;14.15;;;12.50;92.10;;;;;;5006133;28;20034;-74
2022/01/01 00:46:18;;;;;;;24.23;14.27;;;12.50;92.00;;;;;;5010675;28;20045;-74
2022/01/01 00:48:43;;;;;;;24.67;15.32;;;12.50;91.90;;;;;;5023881;28;20084;-74
2022/01/01 00:51:09;;;;;;;25.23;15.70;;;12.60;91.80;;;;;;5019416;28;20056;-74
2022/01/01 00:53:34;;;;;;;28.23;16.05;;;12.60;91.70;;;;;;5014194;28;20541;-74
2022/01/01 00:56:00;;;;;;;28.70;18.92;;;12.60;91.60;;;;;;5014082;28;20036;-74
2022/01/01 00:58:26;;;;;;;25.08;18.42;;;12.60;91.40;;;;;;5018509;28;20064;-74
2022/01/01 01:00:51;;;;;;;29.23;16.88;;;12.60;91.40;;;;;;5015882;28;20029;-74
2022/01/01 01:03:17;;;;;;;30.90;18.58;;;12.60;91.20;;;;;;5014088;28;20440;-74
2022/01/01 01:05:45;;;;;;;29.00;16.98;;;12.60;91.10;;;;;;5016054;28;20175;-74
2022/01/01 01:08:14;;;;;;;29.10;17.02;;;12.60;91.00;;;;;;5019646;28;20386;-74
2022/01/01 01:10:40;;;;;;;26.92;15.32;;;12.60;91.00;;;;;;5025099;28;20038;-75
2022/01/01 01:13:08;;;;;;;29.70;14.80;;;12.60;90.80;;;;;;5022745;28;20495;-76
2022/01/01 01:15:34;;;;;;;25.85;13.57;;;12.60;90.80;;;;;;5009210;28;20037;-74
2022/01/01 01:18:03;;;;;;;24.85;12.80;;;12.60;90.70;;;;;;5009493;28;20045;-74
2022/01/01 01:20:29;;;;;;;23.50;12.88;;;12.60;90.60;;;;;;5011148;28;20045;-74
2022/01/01 01:22:55;;;;;;;21.90;11.85;;;12.60;90.60;;;;;;5017316;28;20030;-74
2022/01/01 01:25:22;;;;;;;19.10;11.38;;;12.60;90.60;;;;;;5010275;28;20524;-75
2022/01/01 01:27:52;;;;;;;21.60;10.82;;;12.60;90.70;;;;;;5005283;28;20578;-77
2022/01/01 01:30:18;;;;;;;20.85;11.27;;;12.60;90.60;;;;;;5026863;28;20127;-73
2022/01/01 01:32:45;;;;;;;18.67;10.45;;;12.50;90.60;;;;;;5026920;28;20038;-74
2022/01/01 01:35:12;;;;;;;17.88;10.43;;;12.40;90.70;;;;;;5017729;28;20037;-74
2022/01/01 01:37:38;;;;;;;21.40;10.68;;;12.40;90.90;;;;;;5026491;28;20030;-74
2022/01/01 01:40:05;;;;;;;19.77;10.15;;;12.30;91.00;;;;;;5018004;28;20041;-75
2022/01/01 01:42:31;;;;;;;21.65;10.27;;;12.20;91.00;;;;;;5020260;28;20032;-74
2022/01/01 01:44:58;;;;;;;22.35;10.82;;;12.10;91.10;;;;;;5008888;28;20076;-74
2022/01/01 01:47:32;;;;;;;18.38;10.23;;;12.10;91.20;;;;;;5007810;28;20037;-74
2022/01/01 01:50:00;;;;;;;18.08;10.25;;;12.10;91.30;;;;;;5007580;28;20057;-74
2022/01/01 01:52:32;;;;;;;20.23;10.52;;;12.00;91.40;;;;;;5021986;28;20038;-75
2022/01/01 01:54:57;;;;;;;22.02;10.52;;;12.00;91.60;;;;;;5013115;28;20501;-74
2022/01/01 01:57:25;;;;;;;20.75;11.23;;;11.90;91.70;;;;;;5010491;28;20061;-74
2022/01/01 01:59:52;;;;;;;24.20;11.77;;;11.90;91.90;;;;;;5019308;28;20029;-75
2022/01/01 02:02:18;;;;;;;19.42;11.05;;;12.00;91.90;;;;;;5016050;28;20059;-74
2022/01/01 02:04:43;;;;;;;18.85;10.20;;;11.90;91.90;;;;;;5015611;28;20589;-74
2022/01/01 02:07:09;;;;;;;21.30;10.05;;;11.90;91.80;;;;;;5006606;28;20549;-74
2022/01/01 02:09:36;;;;;;;21.63;10.80;;;11.90;91.80;;;;;;5003352;28;20052;-76
2022/01/01 02:12:07;;;;;;;16.48;10.13;;;11.80;91.80;;;;;;5012766;28;20370;-77
2022/01/01 02:17:15;;;;;;;19.88;10.80;;;11.70;92.00;;;;;;5004836;28;20056;-76
2022/01/01 02:19:55;;;;;;;20.67;10.52;;;11.70;92.00;;;;;;5004776;28;20042;-74
2022/01/01 02:22:24;;;;;;;22.27;11.45;;;11.70;92.00;;;;;;5001592;28;20343;-75
2022/01/01 02:24:51;;;;;;;21.77;11.65;;;11.70;92.00;;;;;;5018035;28;20103;-74
2022/01/01 02:27:19;;;;;;;19.00;10.57;;;11.70;92.10;;;;;;5016750;28;20112;-74
2022/01/01 02:29:46;;;;;;;15.38;10.48;;;11.60;92.20;;;;;;5021036;28;20060;-76
2022/01/01 02:32:15;;;;;;;19.15;10.60;;;11.60;92.10;;;;;;5008013;28;20057;-74
2022/01/01 02:34:42;;;;;;;20.17;11.32;;;11.60;92.10;;;;;;5006481;28;20478;-74
2022/01/01 02:37:08;;;;;;;22.65;11.10;;;11.70;92.10;;;;;;5002993;28;20091;-74
2022/01/01 02:39:35;;;;;;;20.10;11.40;;;11.70;92.20;;;;;;5004769;28;20044;-74
2022/01/01 02:42:01;;;;;;;21.48;11.52;;;11.70;92.10;;;;;;5006745;28;20042;-76
2022/01/01 02:44:28;;;;;;;21.02;10.88;;;11.70;92.20;;;;;;5012011;28;20034;-74
2022/01/01 02:46:56;;;;;;;20.30;11.73;;;11.80;92.30;;;;;;5009963;28;20038;-75
2022/01/01 02:49:24;;;;;;;20.92;11.88;;;11.70;92.10;;;;;;5011146;28;20041;-74
2022/01/01 02:51:51;;;;;;;21.88;11.30;;;11.70;92.20;;;;;;5010583;28;20064;-74
2022/01/01 02:54:17;;;;;;;20.27;12.15;;;11.70;92.20;;;;;;5006726;28;20034;-74
2022/01/01 02:56:45;;;;;;;18.77;11.52;;;11.60;92.10;;;;;;5011188;28;20378;-74
2022/01/01 02:59:11;;;;;;;18.48;12.07;;;11.60;92.20;;;;;;5009773;28;20061;-76
2022/01/01 03:01:37;;;;;;;24.63;12.80;;;11.50;92.20;;;;;;5008720;28;20030;-74
2022/01/01 03:04:03;;;;;;;23.13;13.00;;;11.50;92.20;;;;;;5008706;28;20057;-75
2022/01/01 03:06:29;;;;;;;23.35;13.27;;;11.40;92.20;;;;;;5009323;28;20046;-75
2022/01/01 03:08:56;;;;;;;20.33;13.20;;;11.40;92.40;;;;;;5012307;28;20046;-74
2022/01/01 03:11:22;;;;;;;23.80;13.95;;;11.40;92.50;;;;;;5010843;28;20045;-74
2022/01/01 03:13:48;;;;;;;23.77;14.15;;;11.30;92.60;;;;;;5014851;28;20539;-74
2022/01/01 03:16:14;;;;;;;22.52;14.68;;;11.30;92.70;;;;;;5018628;28;20037;-74
2022/01/01 03:18:40;;;;;;;23.45;14.70;;;11.20;92.90;;;;;;5013292;28;20113;-74
2022/01/01 03:21:06;;;;;;;24.00;14.98;;;11.20;92.80;;;;;;5009129;28;20580;-74
2022/01/01 03:23:34;;;;;;;27.08;16.45;;;11.20;92.90;;;;;;5011559;28;20073;-74
2022/01/01 03:26:00;;;;;;;25.02;16.63;;;11.10;92.90;;;;;;5013597;28;20397;-74
2022/01/01 03:28:27;;;;;;;23.35;16.25;;;11.20;93.10;;;;;;5020835;28;20501;-74
2022/01/01 03:30:52;;;;;;;24.23;16.88;;;11.20;93.00;;;;;;5019305;28;20502;-74
2022/01/01 03:33:18;;;;;;;25.38;16.20;;;11.20;93.00;;;;;;5004578;28;20120;-74
2022/01/01 03:35:44;;;;;;;26.80;17.08;;;11.10;93.10;;;;;;5027524;28;20485;-75
2022/01/01 03:38:09;;;;;;;23.52;15.85;;;11.20;92.90;;;;;;5025629;28;20057;-74
2022/01/01 03:40:35;;;;;;;27.65;16.65;;;11.20;92.80;;;;;;5014640;28;20485;-74
2022/01/01 03:43:01;;;;;;;25.88;16.90;;;11.10;92.80;;;;;;5004828;28;20057;-75
2022/01/01 03:45:26;;;;;;;27.00;16.70;;;11.10;93.00;;;;;;5007109;28;20041;-74
2022/01/01 03:47:52;;;;;;;24.27;17.30;;;11.00;93.10;;;;;;5009409;28;20058;-74
2022/01/01 03:50:18;;;;;;;25.60;17.17;;;11.00;93.30;;;;;;5009048;28;20049;-74
2022/01/01 03:52:44;;;;;;;21.45;16.75;;;11.00;93.30;;;;;;4997465;28;20489;-75
2022/01/01 03:55:12;;;;;;;26.17;17.92;;;11.00;93.20;;;;;;5018849;28;20026;-75
2022/01/01 03:57:38;;;;;;;30.23;20.92;;;10.90;93.20;;;;;;5004259;28;20079;-74
2022/01/01 04:00:06;;;;;;;29.15;22.70;;;10.90;93.30;;;;;;5019178;28;20050;-75
2022/01/01 04:02:32;;;;;;;32.63;23.50;;;11.00;93.30;;;;;;5006361;28;20034;-75
2022/01/01 04:04:58;;;;;;;36.63;24.75;;;11.00;93.40;;;;;;5018195;28;20030;-74
2022/01/01 04:07:24;;;;;;;32.17;26.00;;;11.00;93.40;;;;;;5006573;28;20397;-74
2022/01/01 04:09:50;;;;;;;34.08;24.52;;;11.00;93.30;;;;;;5011441;28;20049;-74
2022/01/01 04:12:15;;;;;;;32.42;25.75;;;11.20;92.80;;;;;;5006164;28;20099;-76
2022/01/01 04:14:42;;;;;;;32.10;24.02;;;11.30;92.40;;;;;;5017595;28;20045;-74
2022/01/01 04:17:10;;;;;;;29.90;24.45;;;11.40;92.30;;;;;;5006447;28;20835;-74
2022/01/01 04:19:44;;;;;;;32.13;22.92;;;11.50;92.00;;;;;;5006638;28;20025;-75
2022/01/01 04:22:11;;;;;;;30.52;22.60;;;11.50;91.90;;;;;;5014929;28;20049;-74
2022/01/01 04:24:38;;;;;;;32.85;23.45;;;11.50;91.70;;;;;;5000493;28;22023;-74
2022/01/01 04:27:05;;;;;;;32.90;23.45;;;11.30;92.00;;;;;;4998630;28;20402;-77
2022/01/01 04:29:31;;;;;;;34.50;23.38;;;11.20;92.50;;;;;;5014640;28;20037;-74
2022/01/01 04:31:57;;;;;;;29.60;22.63;;;11.20;92.80;;;;;;5007778;28;20624;-73
2022/01/01 04:34:23;;;;;;;33.13;23.15;;;11.10;93.00;;;;;;5012407;28;20083;-75
2022/01/01 04:36:53;;;;;;;33.50;22.35;;;11.10;93.10;;;;;;5008324;28;20041;-74
2022/01/01 04:39:18;;;;;;;29.58;22.10;;;11.10;93.20;;;;;;5025218;28;20124;-74
2022/01/01 04:41:44;;;;;;;30.73;22.95;;;11.10;93.20;;;;;;5014852;28;20133;-74
2022/01/01 04:44:10;;;;;;;33.45;23.42;;;11.10;93.30;;;;;;5013025;28;20378;-75
2022/01/01 04:46:35;;;;;;;31.55;23.55;;;11.10;93.30;;;;;;5001512;28;20095;-74
2022/01/01 04:49:01;;;;;;;32.58;22.83;;;11.10;93.30;;;;;;5011936;28;20473;-74
2022/01/01 04:51:27;;;;;;;32.33;23.17;;;11.10;93.30;;;;;;5006969;28;20050;-74
2022/01/01 04:53:59;;;;;;;39.28;23.40;;;11.10;93.30;;;;;;5014444;28;20488;-74
2022/01/01 04:56:25;;;;;;;30.27;23.48;;;11.20;93.20;;;;;;4991307;28;20038;-73
2022/01/01 04:58:50;;;;;;;32.28;23.98;;;11.20;93.20;;;;;;5011560;28;20390;-74
2022/01/01 05:01:18;;;;;;;32.72;24.48;;;11.20;93.30;;;;;;5012659;28;20048;-75
2022/01/01 05:03:44;;;;;;;33.85;26.52;;;11.10;93.40;;;;;;5012403;28;20044;-74
2022/01/01 05:06:10;;;;;;;33.97;24.55;;;11.20;93.30;;;;;;5011949;28;20034;-75
2022/01/01 05:08:36;;;;;;;37.17;26.27;;;11.20;93.30;;;;;;5009868;28;20056;-74
2022/01/01 05:11:01;;;;;;;39.13;26.88;;;11.20;93.30;;;;;;5006793;28;20034;-74
2022/01/01 05:13:27;;;;;;;39.35;27.02;;;11.20;93.30;;;;;;5019765;28;20103;-74
2022/01/01 05:15:55;;;;;;;43.47;29.38;;;11.60;92.40;;;;;;5007463;28;20064;-74
2022/01/01 05:18:21;;;;;;;39.63;29.33;;;11.80;91.80;;;;;;5017971;28;20570;-74
2022/01/01 05:20:47;;;;;;;47.50;30.95;;;11.40;92.60;;;;;;5012009;28;20045;-75
2022/01/01 05:23:13;;;;;;;38.95;28.35;;;11.30;93.00;;;;;;5010818;28;20686;-74
2022/01/01 05:25:38;;;;;;;48.38;32.20;;;11.30;93.20;;;;;;5024288;28;20064;-74
2022/01/01 05:28:04;;;;;;;55.65;35.05;;;11.20;93.30;;;;;;5007559;28;20029;-74
2022/01/01 05:30:30;;;;;;;58.60;36.75;;;11.20;93.40;;;;;;5011632;28;20370;-74
2022/01/01 05:32:58;;;;;;;56.67;36.03;;;11.20;93.50;;;;;;5011617;28;20466;-75
2022/01/01 05:35:24;;;;;;;62.70;37.78;;;11.30;93.50;;;;;;5010384;28;20137;-74
2022/01/01 05:37:49;;;;;;;64.72;40.70;;;11.30;93.50;;;;;;5013496;28;20113;-75
2022/01/01 05:40:16;;;;;;;69.88;41.65;;;11.30;93.60;;;;;;5015733;28;20037;-74
2022/01/01 05:42:42;;;;;;;66.65;41.50;;;11.20;93.60;;;;;;5019993;28;20041;-75
2022/01/01 05:45:08;;;;;;;68.80;40.15;;;11.30;93.60;;;;;;5012951;28;20112;-74
2022/01/01 05:47:33;;;;;;;67.22;40.63;;;11.30;93.70;;;;;;5011939;28;20287;-73
2022/01/01 05:49:59;;;;;;;72.15;40.63;;;11.30;93.70;;;;;;5012385;28;20516;-75
2022/01/01 05:52:25;;;;;;;77.85;44.67;;;11.30;93.80;;;;;;5010933;28;20477;-76
2022/01/01 05:54:51;;;;;;;74.07;44.17;;;11.30;93.70;;;;;;5014798;28;20469;-78
2022/01/01 05:57:16;;;;;;;69.07;40.92;;;11.40;93.80;;;;;;5006573;28;20034;-75
2022/01/01 05:59:42;;;;;;;66.78;41.00;;;11.40;93.80;;;;;;5012962;28;20180;-75
2022/01/01 06:02:09;;;;;;;66.65;39.88;;;11.40;93.80;;;;;;5004332;28;20485;-75
2022/01/01 06:04:35;;;;;;;67.40;38.88;;;11.30;93.80;;;;;;5016206;28;20058;-75
2022/01/01 06:07:01;;;;;;;66.65;39.95;;;11.40;93.80;;;;;;5012525;28;20118;-76
2022/01/01 06:09:26;;;;;;;64.10;37.28;;;11.30;93.80;;;;;;5017932;28;20091;-75
2022/01/01 06:11:52;;;;;;;55.63;34.35;;;11.30;93.80;;;;;;5010835;28;20040;-76
2022/01/01 06:14:20;;;;;;;56.08;34.00;;;11.40;93.80;;;;;;5018177;28;20377;-75
2022/01/01 06:16:46;;;;;;;62.08;35.83;;;11.40;93.80;;;;;;5008282;28;20040;-77
2022/01/01 06:19:13;;;;;;;54.53;34.17;;;11.40;93.80;;;;;;5018920;28;20045;-75
2022/01/01 06:21:39;;;;;;;59.70;35.92;;;11.40;93.90;;;;;;5008066;28;20512;-75
2022/01/01 06:24:05;;;;;;;54.05;32.95;;;11.40;93.80;;;;;;5005064;28;20135;-75
2022/01/01 06:26:31;;;;;;;54.83;33.53;;;11.40;93.90;;;;;;5012373;28;20482;-76
2022/01/01 06:28:56;;;;;;;57.17;33.95;;;11.40;93.90;;;;;;5017857;28;20049;-73
2022/01/01 06:31:22;;;;;;;55.42;33.65;;;11.40;93.90;;;;;;5011310;28;20467;-74
2022/01/01 06:33:48;;;;;;;48.95;31.05;;;11.30;93.90;;;;;;5014049;28;20469;-73
2022/01/01 06:36:13;;;;;;;55.22;33.35;;;11.40;94.00;;;;;;4999784;28;20049;-75
2022/01/01 06:38:41;;;;;;;52.47;31.77;;;11.40;94.00;;;;;;5016703;28;20095;-75
2022/01/01 06:41:06;;;;;;;55.70;32.05;;;11.40;94.10;;;;;;5006787;28;20061;-75
2022/01/01 06:43:32;;;;;;;57.03;32.13;;;11.30;94.20;;;;;;5014769;28;20063;-75
2022/01/01 06:45:57;;;;;;;52.30;31.27;;;11.30;94.20;;;;;;5012507;28;20455;-75
2022/01/01 06:48:23;;;;;;;53.30;31.98;;;11.30;94.20;;;;;;5009763;28;20037;-76
2022/01/01 06:50:50;;;;;;;59.58;32.92;;;11.30;94.20;;;;;;5011759;28;20546;-75
2022/01/01 06:53:16;;;;;;;56.55;32.60;;;11.40;94.20;;;;;;5015099;28;20540;-75
2022/01/01 06:55:42;;;;;;;55.65;31.98;;;11.30;94.40;;;;;;5006081;28;20113;-76
2022/01/01 06:58:08;;;;;;;56.05;31.40;;;11.40;94.40;;;;;;5010638;28;20120;-74
2022/01/01 07:00:33;;;;;;;56.38;31.98;;;11.40;94.40;;;;;;5012591;28;20042;-75
2022/01/01 07:02:59;;;;;;;54.45;32.35;;;11.40;94.40;;;;;;5009606;28;20539;-75
2022/01/01 07:05:25;;;;;;;58.53;32.25;;;11.40;94.30;;;;;;5012909;28;20160;-74
2022/01/01 07:07:51;;;;;;;50.85;29.88;;;11.40;94.40;;;;;;5009508;28;20125;-74
2022/01/01 07:10:16;;;;;;;56.47;30.25;;;11.40;94.50;;;;;;5013271;28;20459;-74
2022/01/01 07:12:42;;;;;;;57.58;30.50;;;11.40;94.40;;;;;;5005463;28;20732;-74
2022/01/01 07:15:09;;;;;;;55.08;31.42;;;11.40;94.40;;;;;;5003745;28;20057;-75
2022/01/01 07:17:35;;;;;;;53.42;30.55;;;11.40;94.50;;;;;;5018926;28;20044;-75
2022/01/01 07:20:01;;;;;;;58.33;30.73;;;11.40;94.40;;;;;;5003935;28;20037;-76
2022/01/01 07:22:26;;;;;;;54.88;31.95;;;11.40;94.50;;;;;;5008229;28;20811;-74
2022/01/01 07:24:52;;;;;;;56.08;31.52;;;11.40;94.50;;;;;;5012914;28;20485;-74
2022/01/01 07:27:20;;;;;;;54.97;31.02;;;11.40;94.50;;;;;;5015147;28;20045;-74
2022/01/01 07:29:46;;;;;;;54.85;31.33;;;11.40;94.50;;;;;;5016215;28;20041;-76
2022/01/01 07:32:11;;;;;;;59.70;30.50;;;11.50;94.50;;;;;;4997051;28;20370;-74
2022/01/01 07:34:37;;;;;;;58.88;30.92;;;11.50;94.50;;;;;;5024333;28;20705;-76
2022/01/01 07:37:03;;;;;;;55.63;30.40;;;11.40;94.40;;;;;;5007145;28;20056;-74
2022/01/01 07:39:29;;;;;;;55.95;29.52;;;11.50;94.50;;;;;;5014381;28;20463;-75
2022/01/01 07:41:54;;;;;;;53.92;28.67;;;11.40;94.40;;;;;;5017190;28;20049;-79
2022/01/01 07:44:20;;;;;;;53.42;29.83;;;11.50;94.40;;;;;;5008885;28;20117;-73
2022/01/01 07:46:46;;;;;;;52.40;28.73;;;11.50;94.40;;;;;;5008509;28;20037;-76
2022/01/01 07:49:11;;;;;;;56.53;27.75;;;11.50;94.40;;;;;;5021070;28;20474;-75
2022/01/01 07:51:37;;;;;;;51.10;29.83;;;11.50;94.50;;;;;;5022601;28;20045;-75
2022/01/01 07:54:02;;;;;;;48.03;29.83;;;11.50;94.50;;;;;;5013741;28;20275;-75
2022/01/01 07:56:28;;;;;;;48.83;28.65;;;11.50;94.50;;;;;;5007926;28;20408;-75
2022/01/01 07:58:54;;;;;;;53.35;28.45;;;11.50;94.40;;;;;;5016293;28;20559;-75
2022/01/01 08:01:20;;;;;;;48.90;27.02;;;11.50;94.40;;;;;;5012670;28;20122;-75
2022/01/01 08:03:49;;;;;;;51.03;26.75;;;11.50;94.50;;;;;;5005824;28;20038;-75
2022/01/01 08:06:15;;;;;;;47.13;27.27;;;11.60;94.40;;;;;;5010916;28;21414;-76
2022/01/01 08:08:41;;;;;;;46.92;27.23;;;11.50;94.40;;;;;;5014679;28;20030;-75
2022/01/01 08:11:07;;;;;;;47.25;26.60;;;11.50;94.40;;;;;;5010099;28;20400;-75
2022/01/01 08:13:35;;;;;;;46.75;25.23;;;11.60;94.40;;;;;;5013399;28;20374;-74
2022/01/01 08:16:02;;;;;;;46.88;26.15;;;11.60;94.30;;;;;;5007182;28;20404;-75
2022/01/01 08:18:29;;;;;;;47.92;25.63;;;11.50;94.30;;;;;;5008722;28;20397;-74
2022/01/01 08:20:56;;;;;;;46.30;27.13;;;11.60;94.30;;;;;;5022618;28;20155;-75
2022/01/01 08:23:22;;;;;;;51.75;26.52;;;11.60;94.30;;;;;;5008023;28;20038;-74
2022/01/01 08:25:48;;;;;;;45.67;26.92;;;11.60;94.20;;;;;;5010168;28;20044;-74
2022/01/01 08:28:14;;;;;;;46.28;25.70;;;11.60;94.30;;;;;;5016235;28;20623;-74
2022/01/01 08:30:39;;;;;;;49.00;26.55;;;11.60;94.10;;;;;;5017766;28;20497;-74
2022/01/01 08:33:05;;;;;;;45.55;26.40;;;11.60;94.10;;;;;;5015912;28;20144;-74
2022/01/01 08:35:32;;;;;;;43.40;26.13;;;11.60;94.00;;;;;;5014665;28;20030;-74
2022/01/01 08:38:00;;;;;;;48.10;28.33;;;11.60;94.00;;;;;;5011453;28;20045;-75
2022/01/01 08:40:26;;;;;;;51.75;28.08;;;11.60;94.00;;;;;;5008871;28;20065;-74
2022/01/01 08:42:52;;;;;;;46.75;29.90;;;11.60;93.90;;;;;;5005991;28;20040;-74
2022/01/01 08:45:19;;;;;;;51.53;31.23;;;11.60;93.80;;;;;;5018412;28;20022;-74
2022/01/01 08:47:45;;;;;;;58.58;33.10;;;11.70;93.80;;;;;;5018059;28;20132;-75
2022/01/01 08:50:11;;;;;;;60.95;35.45;;;11.60;93.70;;;;;;5009545;28;20197;-74
2022/01/01 08:52:36;;;;;;;61.72;34.90;;;11.70;93.60;;;;;;5007821;28;20050;-74
2022/01/01 08:55:02;;;;;;;58.85;34.72;;;11.70;93.60;;;;;;5008660;28;20445;-75
2022/01/01 08:57:30;;;;;;;55.85;33.38;;;11.70;93.60;;;;;;5016487;28;20030;-74
2022/01/01 08:59:55;;;;;;;58.47;33.75;;;11.70;93.60;;;;;;5010832;28;20041;-75
2022/01/01 09:02:21;;;;;;;61.08;35.15;;;11.70;93.50;;;;;;5006604;28;20381;-74
2022/01/01 09:04:47;;;;;;;53.75;31.55;;;11.80;93.40;;;;;;5007267;28;20076;-74
2022/01/01 09:07:13;;;;;;;54.53;32.35;;;11.80;93.30;;;;;;5028350;28;20029;-74
2022/01/01 09:09:39;;;;;;;54.08;31.48;;;11.80;93.20;;;;;;5010563;28;20409;-73
2022/01/01 09:12:09;;;;;;;52.75;31.63;;;11.80;93.10;;;;;;5010270;28;20034;-74
2022/01/01 09:14:35;;;;;;;49.85;30.08;;;11.80;93.20;;;;;;5007312;28;20448;-74
2022/01/01 09:17:02;;;;;;;47.60;29.60;;;11.80;93.30;;;;;;5002347;28;20041;-74
2022/01/01 09:19:28;;;;;;;52.35;30.70;;;11.70;93.20;;;;;;5004617;28;20037;-73
2022/01/01 09:21:53;;;;;;;49.17;27.85;;;11.80;93.20;;;;;;5013306;28;20052;-74
2022/01/01 09:24:19;;;;;;;44.92;26.23;;;11.80;93.20;;;;;;5011771;28;20030;-74
2022/01/01 09:26:44;;;;;;;43.40;26.65;;;11.80;93.20;;;;;;5006681;28;20038;-74
2022/01/01 09:29:10;;;;;;;44.30;27.05;;;11.80;93.10;;;;;;5007165;28;20099;-73
2022/01/01 09:31:43;;;;;;;38.15;25.02;;;11.90;93.10;;;;;;5010749;28;20489;-74
2022/01/01 09:34:09;;;;;;;39.47;25.73;;;11.90;93.10;;;;;;5005798;28;20037;-74
2022/01/01 09:36:35;;;;;;;39.40;24.83;;;12.00;92.90;;;;;;5008858;28;20044;-74
2022/01/01 09:39:03;;;;;;;38.80;25.02;;;12.00;92.70;;;;;;5016425;28;20042;-74
2022/01/01 09:41:29;;;;;;;35.75;23.73;;;12.10;92.70;;;;;;5015476;28;20065;-76
2022/01/01 09:43:56;;;;;;;35.22;22.83;;;12.40;92.00;;;;;;5002542;28;20038;-74
2022/01/01 09:46:22;;;;;;;37.15;22.75;;;12.50;91.30;;;;;;5005938;28;20038;-74
2022/01/01 09:48:50;;;;;;;33.85;22.35;;;12.60;90.80;;;;;;5005730;28;20041;-75
2022/01/01 09:51:16;;;;;;;34.15;21.70;;;12.50;90.70;;;;;;5004110;28;20648;-75
2022/01/01 09:53:42;;;;;;;35.38;21.35;;;12.20;91.20;;;;;;5001769;28;20117;-74
2022/01/01 09:56:07;;;;;;;33.17;21.05;;;12.20;91.70;;;;;;5003872;28;20044;-74
2022/01/01 09:58:35;;;;;;;36.47;20.50;;;12.20;91.80;;;;;;5001677;28;20458;-74
2022/01/01 10:01:03;;;;;;;29.75;19.75;;;12.20;91.70;;;;;;5004156;28;20077;-74
2022/01/01 10:03:37;;;;;;;29.27;19.50;;;12.20;91.80;;;;;;5004249;28;20038;-74
2022/01/01 10:06:08;;;;;;;31.25;20.00;;;12.20;91.80;;;;;;5002985;28;20089;-74
2022/01/01 10:08:37;;;;;;;33.05;20.83;;;12.20;91.80;;;;;;5006038;28;20136;-74
2022/01/01 10:11:03;;;;;;;33.60;20.83;;;12.30;91.50;;;;;;5003936;28;20056;-74
2022/01/01 10:13:36;;;;;;;32.42;21.83;;;12.30;91.60;;;;;;5004757;28;20052;-74
2022/01/01 10:16:05;;;;;;;28.55;20.27;;;12.30;91.60;;;;;;4999404;28;20030;-74
2022/01/01 10:18:34;;;;;;;29.90;20.70;;;12.40;91.60;;;;;;5004552;28;20366;-75
2022/01/01 10:21:10;;;;;;;27.85;20.85;;;12.40;91.40;;;;;;5005044;28;20033;-74
2022/01/01 10:23:38;;;;;;;27.90;20.65;;;12.40;91.30;;;;;;5006185;28;20125;-74
2022/01/01 10:29:23;;;;;;;29.02;21.85;;;12.70;90.70;;;;;;5004407;28;20408;-74
2022/01/01 10:32:10;;;;;;;30.10;21.48;;;12.90;90.30;;;;;;5005003;28;20034;-74
2022/01/01 10:34:47;;;;;;;26.38;20.52;;;12.80;90.10;;;;;;5000116;28;20069;-75
2022/01/01 10:37:14;;;;;;;27.98;21.40;;;12.80;90.10;;;;;;5001994;28;20034;-75
2022/01/01 10:39:51;;;;;;;28.77;19.75;;;12.90;89.90;;;;;;5000398;28;20042;-75
2022/01/01 10:42:18;;;;;;;28.77;19.60;;;12.90;89.60;;;;;;4998667;28;20068;-76
2022/01/01 10:44:52;;;;;;;26.17;18.67;;;13.00;89.80;;;;;;5002195;28;20076;-74
2022/01/01 10:47:21;;;;;;;25.45;19.35;;;13.00;89.60;;;;;;5003005;28;20030;-72
2022/01/01 10:52:24;;;;;;;24.13;18.98;;;13.10;89.60;;;;;;5002994;28;20030;-72
2022/01/01 10:54:51;;;;;;;23.88;18.27;;;13.10;89.50;;;;;;5004633;28;20045;-72
2022/01/01 10:57:25;;;;;;;26.45;19.27;;;13.10;89.30;;;;;;5003303;28;20492;-72
2022/01/01 11:00:01;;;;;;;20.60;17.17;;;13.20;89.50;;;;;;5000815;28;20042;-72
2022/01/01 11:02:30;;;;;;;26.02;17.88;;;13.40;89.20;;;;;;5005070;28;20088;-73
2022/01/01 11:04:57;;;;;;;22.40;16.55;;;13.40;88.60;;;;;;5003043;28;20113;-73
2022/01/01 11:07:30;;;;;;;22.35;17.42;;;13.40;88.60;;;;;;5004277;28;20445;-72
2022/01/01 11:09:58;;;;;;;22.08;16.70;;;13.50;88.60;;;;;;5003757;28;20501;-74
2022/01/01 11:12:27;;;;;;;22.05;16.27;;;13.60;88.30;;;;;;5006875;28;20058;-75
2022/01/01 11:14:54;;;;;;;21.92;15.68;;;13.60;88.10;;;;;;5006318;28;20046;-74
2022/01/01 11:17:21;;;;;;;23.50;16.73;;;13.50;88.00;;;;;;5007698;28;20049;-73
2022/01/01 11:19:46;;;;;;;22.27;17.33;;;13.40;88.40;;;;;;5008614;28;20036;-74
2022/01/01 11:22:12;;;;;;;20.90;16.50;;;13.40;88.50;;;;;;5005970;28;20038;-73
2022/01/01 11:24:40;;;;;;;21.05;16.70;;;13.40;88.50;;;;;;5010701;28;20478;-73
2022/01/01 11:27:07;;;;;;;22.67;16.63;;;13.30;88.50;;;;;;5007239;28;20034;-73
2022/01/01 11:29:34;;;;;;;21.17;17.50;;;13.40;88.70;;;;;;5011935;28;20042;-73
2022/01/01 11:32:01;;;;;;;23.23;18.92;;;13.40;88.60;;;;;;5007407;28;20042;-73
2022/01/01 11:34:30;;;;;;;22.52;17.05;;;13.50;88.50;;;;;;5004486;28;20121;-74
2022/01/01 11:36:56;;;;;;;22.80;17.33;;;13.60;88.20;;;;;;5008242;28;20026;-73
2022/01/01 11:39:25;;;;;;;19.65;15.18;;;13.70;88.10;;;;;;5007880;28;20405;-73
2022/01/01 11:41:52;;;;;;;22.10;16.70;;;13.80;87.80;;;;;;5007806;28;20114;-73
2022/01/01 11:44:31;;;;;;;22.35;16.90;;;13.70;87.60;;;;;;5007125;28;20041;-73
2022/01/01 11:47:06;;;;;;;19.15;16.00;;;13.90;87.70;;;;;;5006011;28;20049;-73
2022/01/01 11:49:33;;;;;;;20.20;16.60;;;14.00;86.90;;;;;;5010603;28;20045;-73
2022/01/01 11:52:00;;;;;;;20.90;16.42;;;14.00;86.80;;;;;;5010367;28;20136;-74
2022/01/01 11:54:39;;;;;;;19.23;15.27;;;14.10;87.00;;;;;;5003933;28;20483;-74
2022/01/01 11:57:09;;;;;;;17.95;14.23;;;14.00;86.60;;;;;;5007016;28;20508;-73
2022/01/01 11:59:37;;;;;;;19.98;15.65;;;13.80;87.00;;;;;;5006201;28;20069;-73
2022/01/01 12:02:24;;;;;;;19.52;15.93;;;13.60;87.40;;;;;;5006809;28;20146;-73
2022/01/01 12:04:54;;;;;;;20.52;16.35;;;13.60;87.80;;;;;;5002270;28;20049;-73
2022/01/01 12:07:19;;;;;;;20.08;15.77;;;13.60;87.90;;;;;;5004225;28;20580;-73
2022/01/01 12:10:06;;;;;;;19.05;15.27;;;13.60;88.00;;;;;;5006623;28;20176;-73
2022/01/01 12:12:34;;;;;;;19.13;14.90;;;13.60;88.30;;;;;;5005205;28;20389;-72
2022/01/01 12:15:01;;;;;;;17.75;14.57;;;13.70;88.00;;;;;;5004661;28;20053;-72
2022/01/01 12:17:26;;;;;;;16.77;13.48;;;13.90;87.60;;;;;;5006210;28;20045;-74
2022/01/01 12:19:54;;;;;;;17.73;12.52;;;14.00;87.10;;;;;;5007500;28;20048;-73
2022/01/01 12:22:25;;;;;;;16.92;12.15;;;14.00;86.90;;;;;;5003746;28;20025;-74
2022/01/01 12:24:55;;;;;;;13.80;10.15;;;14.10;86.90;;;;;;5003753;28;20129;-73
2022/01/01 12:27:22;;;;;;;15.15;10.02;;;14.00;86.80;;;;;;5004966;28;20114;-73
2022/01/01 12:30:02;;;;;;;13.45;9.07;;;14.00;86.90;;;;;;5008549;28;20108;-73
2022/01/01 12:32:39;;;;;;;13.70;9.38;;;14.00;86.80;;;;;;5006316;28;20042;-74
2022/01/01 12:35:14;;;;;;;12.27;8.60;;;13.90;86.90;;;;;;5005563;28;20034;-73
2022/01/01 12:37:40;;;;;;;11.82;7.93;;;13.90;87.10;;;;;;5012988;28;20030;-73